sensor_id;sensor_type;location;lat;lon;timestamp;temperature;humidity
8105;DHT22;4095;48.942;9.104;2024-01-30T00:01:38;4.70;99.90
8105;DHT22;4095;48.942;9.104;2024-01-30T00:04:03;4.70;99.90
8105;DHT22;4095;48.942;9.104;2024-01-30T00:06:29;4.70;99.90
8105;DHT22;4095;48.942;9.104;2024-01-30T00:08:55;4.60;99.90
8105;DHT22;4095;48.942;9.104;2024-01-30T00:11:20;4.70;99.90
8105;DHT22;4095;48.942;9.104;2024-01-30T00:13:46;4.70;99.90
8105;DHT22;4095;48.942;9.104;2024-01-30T00:16:21;4.70;99.90
8105;DHT22;4095;48.942;9.104;2024-01-30T00:18:48;4.70;99.90
8105;DHT22;4095;48.942;9.104;2024-01-30T00:21:13;4.70;99.90
8105;DHT22;4095;48.942;9.104;2024-01-30T00:23:39;4.70;99.90
8105;DHT22;4095;48.942;9.104;2024-01-30T00:26:04;4.70;99.90
8105;DHT22;4095;48.942;9.104;2024-01-30T00:28:30;4.70;99.90
8105;DHT22;4095;48.942;9.104;2024-01-30T00:30:56;4.70;99.90
8105;DHT22;4095;48.942;9.104;2024-01-30T00:33:22;4.70;99.90
8105;DHT22;4095;48.942;9.104;2024-01-30T00:35:47;4.70;99.90
8105;DHT22;4095;48.942;9.104;2024-01-30T00:38:13;4.70;99.90
8105;DHT22;4095;48.942;9.104;2024-01-30T00:40:38;4.70;99.90
8105;DHT22;4095;48.942;9.104;2024-01-30T00:43:04;4.70;99.90
8105;DHT22;4095;48.942;9.104;2024-01-30T00:45:29;4.70;99.90
8105;DHT22;4095;48.942;9.104;2024-01-30T00:47:55;4.70;99.90
8105;DHT22;4095;48.942;9.104;2024-01-30T00:50:20;4.70;99.90
8105;DHT22;4095;48.942;9.104;2024-01-30T00:52:47;4.70;99.90
8105;DHT22;4095;48.942;9.104;2024-01-30T00:55:12;4.70;99.90
8105;DHT22;4095;48.942;9.104;2024-01-30T00:57:39;4.70;99.90
8105;DHT22;4095;48.942;9.104;2024-01-30T01:00:05;4.70;99.90
8105;DHT22;4095;48.942;9.104;2024-01-30T01:02:37;4.70;99.90
8105;DHT22;4095;48.942;9.104;2024-01-30T01:05:04;4.60;99.90
8105;DHT22;4095;48.942;9.104;2024-01-30T01:07:30;4.60;99.90
8105;DHT22;4095;48.942;9.104;2024-01-30T01:09:55;4.60;99.90
8105;DHT22;4095;48.942;9.104;2024-01-30T01:12:21;4.50;99.90
8105;DHT22;4095;48.942;9.104;2024-01-30T01:14:47;4.60;99.90
8105;DHT22;4095;48.942;9.104;2024-01-30T01:17:12;4.60;99.90
8105;DHT22;4095;48.942;9.104;2024-01-30T01:19:38;4.60;99.90
8105;DHT22;4095;48.942;9.104;2024-01-30T01:22:03;4.60;99.90
8105;DHT22;4095;48.942;9.104;2024-01-30T01:24:31;4.60;99.90
8105;DHT22;4095;48.942;9.104;2024-01-30T01:26:58;4.60;99.90
8105;DHT22;4095;48.942;9.104;2024-01-30T01:29:24;4.50;99.90
8105;DHT22;4095;48.942;9.104;2024-01-30T01:31:54;4.50;99.90
8105;DHT22;4095;48.942;9.104;2024-01-30T01:34:21;4.50;99.90
8105;DHT22;4095;48.942;9.104;2024-01-30T01:36:46;4.50;99.90
8105;DHT22;4095;48.942;9.104;2024-01-30T01:39:12;4.40;99.90
8105;DHT22;4095;48.942;9.104;2024-01-30T01:41:37;4.50;99.90
8105;DHT22;4095;48.942;9.104;2024-01-30T01:44:03;4.50;99.90
8105;DHT22;4095;48.942;9.104;2024-01-30T01:46:31;4.40;99.90
8105;DHT22;4095;48.942;9.104;2024-01-30T01:48:58;4.50;99.90
8105;DHT22;4095;48.942;9.104;2024-01-30T01:51:24;4.50;99.90
8105;DHT22;4095;48.942;9.104;2024-01-30T01:53:51;4.50;99.90
8105;DHT22;4095;48.942;9.104;2024-01-30T01:56:16;4.40;99.90
8105;DHT22;4095;48.942;9.104;2024-01-30T01:58:44;4.40;99.90
8105;DHT22;4095;48.942;9.104;2024-01-30T02:01:11;4.30;99.90
8105;DHT22;4095;48.942;9.104;2024-01-30T02:03:38;4.30;99.90
8105;DHT22;4095;48.942;9.104;2024-01-30T02:06:04;4.30;99.90
8105;DHT22;4095;48.942;9.104;2024-01-30T02:08:29;4.30;99.90
8105;DHT22;4095;48.942;9.104;2024-01-30T02:10:55;4.30;99.90
8105;DHT22;4095;48.942;9.104;2024-01-30T02:13:21;4.30;99.90
8105;DHT22;4095;48.942;9.104;2024-01-30T02:15:51;4.30;99.90
8105;DHT22;4095;48.942;9.104;2024-01-30T02:18:17;4.30;99.90
8105;DHT22;4095;48.942;9.104;2024-01-30T02:20:43;4.30;99.90
8105;DHT22;4095;48.942;9.104;2024-01-30T02:23:10;4.20;99.90
8105;DHT22;4095;48.942;9.104;2024-01-30T02:25:40;4.20;99.90
8105;DHT22;4095;48.942;9.104;2024-01-30T02:28:13;4.30;99.90
8105;DHT22;4095;48.942;9.104;2024-01-30T02:30:39;4.30;99.90
8105;DHT22;4095;48.942;9.104;2024-01-30T02:33:05;4.20;99.90
8105;DHT22;4095;48.942;9.104;2024-01-30T02:35:31;4.30;99.90
8105;DHT22;4095;48.942;9.104;2024-01-30T02:37:56;4.20;99.90
8105;DHT22;4095;48.942;9.104;2024-01-30T02:40:22;4.20;99.90
8105;DHT22;4095;48.942;9.104;2024-01-30T02:42:47;4.20;99.90
8105;DHT22;4095;48.942;9.104;2024-01-30T02:45:13;4.20;99.90
8105;DHT22;4095;48.942;9.104;2024-01-30T02:47:39;4.20;99.90
8105;DHT22;4095;48.942;9.104;2024-01-30T02:50:05;4.10;99.90
8105;DHT22;4095;48.942;9.104;2024-01-30T02:52:31;4.20;99.90
8105;DHT22;4095;48.942;9.104;2024-01-30T02:54:56;4.10;99.90
8105;DHT22;4095;48.942;9.104;2024-01-30T02:57:22;4.10;99.90
8105;DHT22;4095;48.942;9.104;2024-01-30T02:59:47;4.20;99.90
8105;DHT22;4095;48.942;9.104;2024-01-30T03:02:13;4.20;99.90
8105;DHT22;4095;48.942;9.104;2024-01-30T03:04:41;4.20;99.90
8105;DHT22;4095;48.942;9.104;2024-01-30T03:07:07;4.20;99.90
8105;DHT22;4095;48.942;9.104;2024-01-30T03:09:32;4.20;99.90
8105;DHT22;4095;48.942;9.104;2024-01-30T03:11:58;4.30;99.90
8105;DHT22;4095;48.942;9.104;2024-01-30T03:14:23;4.20;99.90
8105;DHT22;4095;48.942;9.104;2024-01-30T03:16:49;4.30;99.90
8105;DHT22;4095;48.942;9.104;2024-01-30T03:19:14;4.30;99.90
8105;DHT22;4095;48.942;9.104;2024-01-30T03:21:40;4.30;99.90
8105;DHT22;4095;48.942;9.104;2024-01-30T03:24:05;4.30;99.90
8105;DHT22;4095;48.942;9.104;2024-01-30T03:26:31;4.30;99.90
8105;DHT22;4095;48.942;9.104;2024-01-30T03:28:56;4.30;99.90
8105;DHT22;4095;48.942;9.104;2024-01-30T03:31:22;4.30;99.90
8105;DHT22;4095;48.942;9.104;2024-01-30T03:33:47;4.20;99.90
8105;DHT22;4095;48.942;9.104;2024-01-30T03:36:14;4.20;99.90
8105;DHT22;4095;48.942;9.104;2024-01-30T03:38:40;4.20;99.90
8105;DHT22;4095;48.942;9.104;2024-01-30T03:41:08;4.20;99.90
8105;DHT22;4095;48.942;9.104;2024-01-30T03:43:34;4.20;99.90
8105;DHT22;4095;48.942;9.104;2024-01-30T03:46:01;4.10;99.90
8105;DHT22;4095;48.942;9.104;2024-01-30T03:48:27;4.10;99.90
8105;DHT22;4095;48.942;9.104;2024-01-30T03:50:52;4.10;99.90
8105;DHT22;4095;48.942;9.104;2024-01-30T03:53:18;4.10;99.90
8105;DHT22;4095;48.942;9.104;2024-01-30T03:55:43;4.10;99.90
8105;DHT22;4095;48.942;9.104;2024-01-30T03:58:09;4.10;99.90
8105;DHT22;4095;48.942;9.104;2024-01-30T04:00:34;4.00;99.90
8105;DHT22;4095;48.942;9.104;2024-01-30T04:03:00;4.00;99.90
8105;DHT22;4095;48.942;9.104;2024-01-30T04:05:26;4.00;99.90
8105;DHT22;4095;48.942;9.104;2024-01-30T04:07:51;4.00;99.90
8105;DHT22;4095;48.942;9.104;2024-01-30T04:10:17;4.10;99.90
8105;DHT22;4095;48.942;9.104;2024-01-30T04:12:42;4.00;99.90
8105;DHT22;4095;48.942;9.104;2024-01-30T04:15:08;4.00;99.90
8105;DHT22;4095;48.942;9.104;2024-01-30T04:17:34;4.00;99.90
8105;DHT22;4095;48.942;9.104;2024-01-30T04:19:59;4.00;99.90
8105;DHT22;4095;48.942;9.104;2024-01-30T04:22:25;4.00;99.90
8105;DHT22;4095;48.942;9.104;2024-01-30T04:24:50;4.00;99.90
8105;DHT22;4095;48.942;9.104;2024-01-30T04:27:16;4.00;99.90
8105;DHT22;4095;48.942;9.104;2024-01-30T04:29:41;3.90;99.90
8105;DHT22;4095;48.942;9.104;2024-01-30T04:32:07;3.90;99.90
8105;DHT22;4095;48.942;9.104;2024-01-30T04:34:32;3.90;99.90
8105;DHT22;4095;48.942;9.104;2024-01-30T04:36:58;3.90;99.90
8105;DHT22;4095;48.942;9.104;2024-01-30T04:39:24;3.90;99.90
8105;DHT22;4095;48.942;9.104;2024-01-30T04:41:49;3.90;99.90
8105;DHT22;4095;48.942;9.104;2024-01-30T04:44:15;3.90;99.90
8105;DHT22;4095;48.942;9.104;2024-01-30T04:46:40;3.90;99.90
8105;DHT22;4095;48.942;9.104;2024-01-30T04:49:06;3.90;99.90
8105;DHT22;4095;48.942;9.104;2024-01-30T04:51:33;3.90;99.90
8105;DHT22;4095;48.942;9.104;2024-01-30T04:53:58;3.90;99.90
8105;DHT22;4095;48.942;9.104;2024-01-30T04:56:24;3.90;99.90
8105;DHT22;4095;48.942;9.104;2024-01-30T04:58:49;3.90;99.90
8105;DHT22;4095;48.942;9.104;2024-01-30T05:01:16;3.80;99.90
8105;DHT22;4095;48.942;9.104;2024-01-30T05:03:41;3.90;99.90
8105;DHT22;4095;48.942;9.104;2024-01-30T05:06:07;3.80;99.90
8105;DHT22;4095;48.942;9.104;2024-01-30T05:08:32;3.90;99.90
8105;DHT22;4095;48.942;9.104;2024-01-30T05:11:00;3.80;99.90
8105;DHT22;4095;48.942;9.104;2024-01-30T05:13:26;3.80;99.90
8105;DHT22;4095;48.942;9.104;2024-01-30T05:15:52;3.80;99.90
8105;DHT22;4095;48.942;9.104;2024-01-30T05:18:17;3.80;99.90
8105;DHT22;4095;48.942;9.104;2024-01-30T05:20:43;3.80;99.90
8105;DHT22;4095;48.942;9.104;2024-01-30T05:23:09;3.80;99.90
8105;DHT22;4095;48.942;9.104;2024-01-30T05:25:34;3.80;99.90
8105;DHT22;4095;48.942;9.104;2024-01-30T05:28:00;3.80;99.90
8105;DHT22;4095;48.942;9.104;2024-01-30T05:30:25;3.80;99.90
8105;DHT22;4095;48.942;9.104;2024-01-30T05:32:51;3.70;99.90
8105;DHT22;4095;48.942;9.104;2024-01-30T05:35:16;3.70;99.90
8105;DHT22;4095;48.942;9.104;2024-01-30T05:37:42;3.70;99.90
8105;DHT22;4095;48.942;9.104;2024-01-30T05:40:08;3.70;99.90
8105;DHT22;4095;48.942;9.104;2024-01-30T05:42:33;3.70;99.90
8105;DHT22;4095;48.942;9.104;2024-01-30T05:44:59;3.70;99.90
8105;DHT22;4095;48.942;9.104;2024-01-30T05:47:24;3.70;99.90
8105;DHT22;4095;48.942;9.104;2024-01-30T05:49:50;3.70;99.90
8105;DHT22;4095;48.942;9.104;2024-01-30T05:52:15;3.70;99.90
8105;DHT22;4095;48.942;9.104;2024-01-30T05:54:41;3.70;99.90
8105;DHT22;4095;48.942;9.104;2024-01-30T05:57:07;3.70;99.90
8105;DHT22;4095;48.942;9.104;2024-01-30T05:59:32;3.70;99.90
8105;DHT22;4095;48.942;9.104;2024-01-30T06:01:58;3.70;99.90
8105;DHT22;4095;48.942;9.104;2024-01-30T06:04:23;3.70;99.90
8105;DHT22;4095;48.942;9.104;2024-01-30T06:06:49;3.70;99.90
8105;DHT22;4095;48.942;9.104;2024-01-30T06:09:14;3.70;99.90
8105;DHT22;4095;48.942;9.104;2024-01-30T06:11:40;3.60;99.90
8105;DHT22;4095;48.942;9.104;2024-01-30T06:14:05;3.70;99.90
8105;DHT22;4095;48.942;9.104;2024-01-30T06:16:31;3.60;99.90
8105;DHT22;4095;48.942;9.104;2024-01-30T06:18:56;3.60;99.90
8105;DHT22;4095;48.942;9.104;2024-01-30T06:21:23;3.60;99.90
8105;DHT22;4095;48.942;9.104;2024-01-30T06:23:49;3.60;99.90
8105;DHT22;4095;48.942;9.104;2024-01-30T06:26:14;3.70;99.90
8105;DHT22;4095;48.942;9.104;2024-01-30T06:28:40;3.60;99.90
8105;DHT22;4095;48.942;9.104;2024-01-30T06:31:05;3.60;99.90
8105;DHT22;4095;48.942;9.104;2024-01-30T06:33:31;3.60;99.90
8105;DHT22;4095;48.942;9.104;2024-01-30T06:35:56;3.60;99.90
8105;DHT22;4095;48.942;9.104;2024-01-30T06:38:22;3.70;99.90
8105;DHT22;4095;48.942;9.104;2024-01-30T06:40:47;3.70;99.90
8105;DHT22;4095;48.942;9.104;2024-01-30T06:43:13;3.60;99.90
8105;DHT22;4095;48.942;9.104;2024-01-30T06:45:38;3.70;99.90
8105;DHT22;4095;48.942;9.104;2024-01-30T06:48:04;3.70;99.90
8105;DHT22;4095;48.942;9.104;2024-01-30T06:50:30;3.60;99.90
8105;DHT22;4095;48.942;9.104;2024-01-30T06:52:55;3.60;99.90
8105;DHT22;4095;48.942;9.104;2024-01-30T06:55:21;3.60;99.90
8105;DHT22;4095;48.942;9.104;2024-01-30T06:57:46;3.60;99.90
8105;DHT22;4095;48.942;9.104;2024-01-30T07:00:12;3.60;99.90
8105;DHT22;4095;48.942;9.104;2024-01-30T07:02:39;3.60;99.90
8105;DHT22;4095;48.942;9.104;2024-01-30T07:05:04;3.60;99.90
8105;DHT22;4095;48.942;9.104;2024-01-30T07:07:30;3.60;99.90
8105;DHT22;4095;48.942;9.104;2024-01-30T07:09:55;3.60;99.90
8105;DHT22;4095;48.942;9.104;2024-01-30T07:12:25;3.60;99.90
8105;DHT22;4095;48.942;9.104;2024-01-30T07:14:51;3.60;99.90
8105;DHT22;4095;48.942;9.104;2024-01-30T07:17:17;3.60;99.90
8105;DHT22;4095;48.942;9.104;2024-01-30T07:19:43;3.60;99.90
8105;DHT22;4095;48.942;9.104;2024-01-30T07:22:08;3.70;99.90
8105;DHT22;4095;48.942;9.104;2024-01-30T07:24:34;3.60;99.90
8105;DHT22;4095;48.942;9.104;2024-01-30T07:27:00;3.70;99.90
8105;DHT22;4095;48.942;9.104;2024-01-30T07:29:25;3.70;99.90
8105;DHT22;4095;48.942;9.104;2024-01-30T07:31:51;3.80;99.90
8105;DHT22;4095;48.942;9.104;2024-01-30T07:34:17;3.80;99.90
8105;DHT22;4095;48.942;9.104;2024-01-30T07:36:42;3.80;99.90
8105;DHT22;4095;48.942;9.104;2024-01-30T07:39:08;3.90;99.90
8105;DHT22;4095;48.942;9.104;2024-01-30T07:41:33;3.90;99.90
8105;DHT22;4095;48.942;9.104;2024-01-30T07:43:59;4.00;99.90
8105;DHT22;4095;48.942;9.104;2024-01-30T07:46:24;4.00;99.90
8105;DHT22;4095;48.942;9.104;2024-01-30T07:48:50;4.10;99.90
8105;DHT22;4095;48.942;9.104;2024-01-30T07:51:15;4.10;99.90
8105;DHT22;4095;48.942;9.104;2024-01-30T07:53:41;4.20;99.90
8105;DHT22;4095;48.942;9.104;2024-01-30T07:56:07;4.20;99.90
8105;DHT22;4095;48.942;9.104;2024-01-30T07:58:32;4.30;99.90
8105;DHT22;4095;48.942;9.104;2024-01-30T08:00:58;4.40;99.90
8105;DHT22;4095;48.942;9.104;2024-01-30T08:03:25;4.50;99.90
8105;DHT22;4095;48.942;9.104;2024-01-30T08:05:51;4.50;99.90
8105;DHT22;4095;48.942;9.104;2024-01-30T08:08:17;4.60;99.90
8105;DHT22;4095;48.942;9.104;2024-01-30T08:10:42;4.60;99.90
8105;DHT22;4095;48.942;9.104;2024-01-30T08:13:08;4.70;99.90
8105;DHT22;4095;48.942;9.104;2024-01-30T08:15:34;4.80;99.90
8105;DHT22;4095;48.942;9.104;2024-01-30T08:18:00;4.80;99.90
8105;DHT22;4095;48.942;9.104;2024-01-30T08:20:25;4.90;99.90
8105;DHT22;4095;48.942;9.104;2024-01-30T08:22:51;5.00;99.90
8105;DHT22;4095;48.942;9.104;2024-01-30T08:25:17;5.10;99.90
8105;DHT22;4095;48.942;9.104;2024-01-30T08:27:42;5.10;99.90
8105;DHT22;4095;48.942;9.104;2024-01-30T08:30:08;5.20;99.90
8105;DHT22;4095;48.942;9.104;2024-01-30T08:32:34;5.30;99.90
8105;DHT22;4095;48.942;9.104;2024-01-30T08:34:59;5.30;99.90
8105;DHT22;4095;48.942;9.104;2024-01-30T08:37:29;5.40;99.90
8105;DHT22;4095;48.942;9.104;2024-01-30T08:39:54;5.40;99.90
8105;DHT22;4095;48.942;9.104;2024-01-30T08:42:20;5.50;99.90
8105;DHT22;4095;48.942;9.104;2024-01-30T08:44:48;5.60;99.90
8105;DHT22;4095;48.942;9.104;2024-01-30T08:47:14;5.60;99.90
8105;DHT22;4095;48.942;9.104;2024-01-30T08:49:41;5.70;99.90
8105;DHT22;4095;48.942;9.104;2024-01-30T08:52:09;5.80;99.90
8105;DHT22;4095;48.942;9.104;2024-01-30T08:54:35;5.90;99.90
8105;DHT22;4095;48.942;9.104;2024-01-30T08:57:01;5.90;99.90
8105;DHT22;4095;48.942;9.104;2024-01-30T08:59:27;5.90;99.90
8105;DHT22;4095;48.942;9.104;2024-01-30T09:01:52;6.00;99.90
8105;DHT22;4095;48.942;9.104;2024-01-30T09:04:20;6.00;99.90
8105;DHT22;4095;48.942;9.104;2024-01-30T09:06:47;6.10;99.90
8105;DHT22;4095;48.942;9.104;2024-01-30T09:09:12;6.10;99.90
8105;DHT22;4095;48.942;9.104;2024-01-30T09:11:38;6.20;99.90
8105;DHT22;4095;48.942;9.104;2024-01-30T09:14:03;6.30;99.90
8105;DHT22;4095;48.942;9.104;2024-01-30T09:16:29;6.40;99.90
8105;DHT22;4095;48.942;9.104;2024-01-30T09:18:54;6.60;99.90
8105;DHT22;4095;48.942;9.104;2024-01-30T09:21:20;6.70;99.90
8105;DHT22;4095;48.942;9.104;2024-01-30T09:23:45;6.70;99.90
8105;DHT22;4095;48.942;9.104;2024-01-30T09:26:11;6.90;99.90
8105;DHT22;4095;48.942;9.104;2024-01-30T09:28:38;7.00;99.90
8105;DHT22;4095;48.942;9.104;2024-01-30T09:31:03;7.10;99.90
8105;DHT22;4095;48.942;9.104;2024-01-30T09:33:29;7.30;99.90
8105;DHT22;4095;48.942;9.104;2024-01-30T09:35:55;7.50;99.90
8105;DHT22;4095;48.942;9.104;2024-01-30T09:38:20;7.70;99.90
8105;DHT22;4095;48.942;9.104;2024-01-30T09:40:53;7.80;99.90
8105;DHT22;4095;48.942;9.104;2024-01-30T09:43:22;7.90;99.90
8105;DHT22;4095;48.942;9.104;2024-01-30T09:45:50;8.10;99.90
8105;DHT22;4095;48.942;9.104;2024-01-30T09:48:15;8.20;99.90
8105;DHT22;4095;48.942;9.104;2024-01-30T09:50:41;8.30;99.90
8105;DHT22;4095;48.942;9.104;2024-01-30T09:53:08;8.30;99.90
8105;DHT22;4095;48.942;9.104;2024-01-30T09:55:35;8.40;99.90
8105;DHT22;4095;48.942;9.104;2024-01-30T09:58:01;8.50;99.90
8105;DHT22;4095;48.942;9.104;2024-01-30T10:00:27;8.50;99.90
8105;DHT22;4095;48.942;9.104;2024-01-30T10:02:53;8.60;99.90
8105;DHT22;4095;48.942;9.104;2024-01-30T10:05:19;8.60;99.90
8105;DHT22;4095;48.942;9.104;2024-01-30T10:07:55;8.60;99.90
8105;DHT22;4095;48.942;9.104;2024-01-30T10:10:23;8.60;99.90
8105;DHT22;4095;48.942;9.104;2024-01-30T10:12:49;8.70;99.90
8105;DHT22;4095;48.942;9.104;2024-01-30T10:15:14;8.70;99.90
8105;DHT22;4095;48.942;9.104;2024-01-30T10:17:40;8.70;99.90
8105;DHT22;4095;48.942;9.104;2024-01-30T10:20:06;8.70;99.90
8105;DHT22;4095;48.942;9.104;2024-01-30T10:22:33;8.80;99.90
8105;DHT22;4095;48.942;9.104;2024-01-30T10:25:00;8.80;99.90
8105;DHT22;4095;48.942;9.104;2024-01-30T10:27:26;8.80;99.90
8105;DHT22;4095;48.942;9.104;2024-01-30T10:29:52;8.90;99.90
8105;DHT22;4095;48.942;9.104;2024-01-30T10:32:19;9.00;99.90
8105;DHT22;4095;48.942;9.104;2024-01-30T10:34:45;9.10;99.90
8105;DHT22;4095;48.942;9.104;2024-01-30T10:37:11;9.20;99.90
8105;DHT22;4095;48.942;9.104;2024-01-30T10:39:46;9.20;99.90
8105;DHT22;4095;48.942;9.104;2024-01-30T10:42:17;9.40;99.90
8105;DHT22;4095;48.942;9.104;2024-01-30T10:45:08;9.60;99.90
8105;DHT22;4095;48.942;9.104;2024-01-30T10:47:37;9.60;99.90
8105;DHT22;4095;48.942;9.104;2024-01-30T10:50:03;9.80;99.90
8105;DHT22;4095;48.942;9.104;2024-01-30T10:52:29;9.90;99.90
8105;DHT22;4095;48.942;9.104;2024-01-30T10:54:55;10.00;99.90
8105;DHT22;4095;48.942;9.104;2024-01-30T10:57:27;10.20;99.90
8105;DHT22;4095;48.942;9.104;2024-01-30T10:59:55;10.30;99.90
8105;DHT22;4095;48.942;9.104;2024-01-30T11:02:22;10.40;99.90
8105;DHT22;4095;48.942;9.104;2024-01-30T11:04:49;10.50;99.90
8105;DHT22;4095;48.942;9.104;2024-01-30T11:07:16;10.60;99.90
8105;DHT22;4095;48.942;9.104;2024-01-30T11:09:49;10.80;99.90
8105;DHT22;4095;48.942;9.104;2024-01-30T11:12:14;11.00;99.90
8105;DHT22;4095;48.942;9.104;2024-01-30T11:14:40;11.10;99.90
8105;DHT22;4095;48.942;9.104;2024-01-30T11:17:06;11.20;99.90
8105;DHT22;4095;48.942;9.104;2024-01-30T11:19:32;11.20;99.90
8105;DHT22;4095;48.942;9.104;2024-01-30T11:21:59;11.20;99.90
8105;DHT22;4095;48.942;9.104;2024-01-30T11:24:25;11.20;99.90
8105;DHT22;4095;48.942;9.104;2024-01-30T11:26:58;11.10;99.90
8105;DHT22;4095;48.942;9.104;2024-01-30T11:29:27;11.00;99.90
8105;DHT22;4095;48.942;9.104;2024-01-30T11:31:54;10.90;99.90
8105;DHT22;4095;48.942;9.104;2024-01-30T11:34:20;10.90;99.90
8105;DHT22;4095;48.942;9.104;2024-01-30T11:36:52;11.00;99.90
8105;DHT22;4095;48.942;9.104;2024-01-30T11:39:20;11.00;99.90
8105;DHT22;4095;48.942;9.104;2024-01-30T11:41:49;11.00;99.90
8105;DHT22;4095;48.942;9.104;2024-01-30T11:44:16;11.00;99.90
8105;DHT22;4095;48.942;9.104;2024-01-30T11:46:41;11.00;99.90
8105;DHT22;4095;48.942;9.104;2024-01-30T11:49:07;11.00;99.90
8105;DHT22;4095;48.942;9.104;2024-01-30T11:51:33;11.10;99.90
8105;DHT22;4095;48.942;9.104;2024-01-30T11:53:58;11.10;99.90
8105;DHT22;4095;48.942;9.104;2024-01-30T11:56:24;11.10;99.90
8105;DHT22;4095;48.942;9.104;2024-01-30T11:58:50;11.00;99.90
8105;DHT22;4095;48.942;9.104;2024-01-30T12:01:17;11.10;99.90
8105;DHT22;4095;48.942;9.104;2024-01-30T12:03:49;11.10;99.90
8105;DHT22;4095;48.942;9.104;2024-01-30T12:06:15;11.20;99.90
8105;DHT22;4095;48.942;9.104;2024-01-30T12:08:41;11.20;99.90
8105;DHT22;4095;48.942;9.104;2024-01-30T12:11:07;11.30;99.90
8105;DHT22;4095;48.942;9.104;2024-01-30T12:13:33;11.40;99.90
8105;DHT22;4095;48.942;9.104;2024-01-30T12:15:59;11.40;99.90
8105;DHT22;4095;48.942;9.104;2024-01-30T12:18:25;11.40;99.90
8105;DHT22;4095;48.942;9.104;2024-01-30T12:20:58;11.40;99.90
8105;DHT22;4095;48.942;9.104;2024-01-30T12:23:24;11.40;99.90
8105;DHT22;4095;48.942;9.104;2024-01-30T12:25:51;11.50;99.90
8105;DHT22;4095;48.942;9.104;2024-01-30T12:28:17;11.60;99.90
8105;DHT22;4095;48.942;9.104;2024-01-30T12:30:43;11.70;99.90
8105;DHT22;4095;48.942;9.104;2024-01-30T12:33:08;12.00;99.90
8105;DHT22;4095;48.942;9.104;2024-01-30T12:35:35;12.30;99.90
8105;DHT22;4095;48.942;9.104;2024-01-30T12:38:01;12.60;99.90
8105;DHT22;4095;48.942;9.104;2024-01-30T12:40:27;12.80;99.90
8105;DHT22;4095;48.942;9.104;2024-01-30T12:42:53;12.90;99.90
8105;DHT22;4095;48.942;9.104;2024-01-30T12:45:19;13.00;99.90
8105;DHT22;4095;48.942;9.104;2024-01-30T12:47:47;13.30;99.50
8105;DHT22;4095;48.942;9.104;2024-01-30T12:50:12;13.60;99.00
8105;DHT22;4095;48.942;9.104;2024-01-30T12:52:41;14.00;98.70
8105;DHT22;4095;48.942;9.104;2024-01-30T12:55:06;14.60;98.50
8105;DHT22;4095;48.942;9.104;2024-01-30T12:57:32;15.10;97.50
8105;DHT22;4095;48.942;9.104;2024-01-30T12:59:58;15.10;97.00
8105;DHT22;4095;48.942;9.104;2024-01-30T13:02:23;15.00;97.40
8105;DHT22;4095;48.942;9.104;2024-01-30T13:04:49;14.90;97.10
8105;DHT22;4095;48.942;9.104;2024-01-30T13:07:15;15.00;97.00
8105;DHT22;4095;48.942;9.104;2024-01-30T13:09:40;15.00;96.60
8105;DHT22;4095;48.942;9.104;2024-01-30T13:12:06;14.90;96.60
8105;DHT22;4095;48.942;9.104;2024-01-30T13:14:32;14.90;97.50
8105;DHT22;4095;48.942;9.104;2024-01-30T13:16:58;15.20;97.70
8105;DHT22;4095;48.942;9.104;2024-01-30T13:19:23;15.50;96.80
8105;DHT22;4095;48.942;9.104;2024-01-30T13:21:49;15.50;96.60
8105;DHT22;4095;48.942;9.104;2024-01-30T13:24:14;15.40;96.70
8105;DHT22;4095;48.942;9.104;2024-01-30T13:26:42;15.20;96.70
8105;DHT22;4095;48.942;9.104;2024-01-30T13:29:07;14.90;96.40
8105;DHT22;4095;48.942;9.104;2024-01-30T13:31:33;14.70;97.00
8105;DHT22;4095;48.942;9.104;2024-01-30T13:34:00;14.50;97.90
8105;DHT22;4095;48.942;9.104;2024-01-30T13:36:25;14.40;98.00
8105;DHT22;4095;48.942;9.104;2024-01-30T13:38:51;14.20;98.00
8105;DHT22;4095;48.942;9.104;2024-01-30T13:41:16;14.20;98.40
8105;DHT22;4095;48.942;9.104;2024-01-30T13:43:43;14.20;98.50
8105;DHT22;4095;48.942;9.104;2024-01-30T13:46:10;14.20;98.80
8105;DHT22;4095;48.942;9.104;2024-01-30T13:48:35;14.10;98.50
8105;DHT22;4095;48.942;9.104;2024-01-30T13:51:01;14.00;98.60
8105;DHT22;4095;48.942;9.104;2024-01-30T13:53:26;13.90;99.00
8105;DHT22;4095;48.942;9.104;2024-01-30T13:55:52;13.90;99.10
8105;DHT22;4095;48.942;9.104;2024-01-30T13:58:18;13.80;99.60
8105;DHT22;4095;48.942;9.104;2024-01-30T14:00:43;13.80;99.40
8105;DHT22;4095;48.942;9.104;2024-01-30T14:03:09;13.70;99.90
8105;DHT22;4095;48.942;9.104;2024-01-30T14:05:34;13.60;99.70
8105;DHT22;4095;48.942;9.104;2024-01-30T14:08:01;13.50;99.60
8105;DHT22;4095;48.942;9.104;2024-01-30T14:10:26;13.50;99.60
8105;DHT22;4095;48.942;9.104;2024-01-30T14:12:52;13.50;99.90
8105;DHT22;4095;48.942;9.104;2024-01-30T14:15:17;13.50;99.80
8105;DHT22;4095;48.942;9.104;2024-01-30T14:17:44;13.40;99.90
8105;DHT22;4095;48.942;9.104;2024-01-30T14:20:10;13.40;99.90
8105;DHT22;4095;48.942;9.104;2024-01-30T14:22:36;13.40;99.90
8105;DHT22;4095;48.942;9.104;2024-01-30T14:25:02;13.30;99.90
8105;DHT22;4095;48.942;9.104;2024-01-30T14:27:29;13.20;99.90
8105;DHT22;4095;48.942;9.104;2024-01-30T14:29:56;13.20;99.80
8105;DHT22;4095;48.942;9.104;2024-01-30T14:32:21;13.20;99.90
8105;DHT22;4095;48.942;9.104;2024-01-30T14:34:48;13.20;99.90
8105;DHT22;4095;48.942;9.104;2024-01-30T14:37:14;13.10;99.90
8105;DHT22;4095;48.942;9.104;2024-01-30T14:39:39;13.00;99.90
8105;DHT22;4095;48.942;9.104;2024-01-30T14:42:06;13.00;99.90
8105;DHT22;4095;48.942;9.104;2024-01-30T14:44:32;13.00;99.90
8105;DHT22;4095;48.942;9.104;2024-01-30T14:46:59;12.90;99.90
8105;DHT22;4095;48.942;9.104;2024-01-30T14:49:24;12.90;99.90
8105;DHT22;4095;48.942;9.104;2024-01-30T14:51:50;12.80;99.90
8105;DHT22;4095;48.942;9.104;2024-01-30T14:54:16;12.80;99.90
8105;DHT22;4095;48.942;9.104;2024-01-30T14:56:41;12.80;99.90
8105;DHT22;4095;48.942;9.104;2024-01-30T14:59:07;12.70;99.90
8105;DHT22;4095;48.942;9.104;2024-01-30T15:01:32;12.60;99.90
8105;DHT22;4095;48.942;9.104;2024-01-30T15:03:58;12.60;99.90
8105;DHT22;4095;48.942;9.104;2024-01-30T15:06:23;12.50;99.90
8105;DHT22;4095;48.942;9.104;2024-01-30T15:08:53;12.40;99.90
8105;DHT22;4095;48.942;9.104;2024-01-30T15:11:18;12.40;99.90
8105;DHT22;4095;48.942;9.104;2024-01-30T15:13:44;12.30;99.90
8105;DHT22;4095;48.942;9.104;2024-01-30T15:16:09;12.20;99.90
8105;DHT22;4095;48.942;9.104;2024-01-30T15:18:35;12.20;99.90
8105;DHT22;4095;48.942;9.104;2024-01-30T15:21:01;12.20;99.90
8105;DHT22;4095;48.942;9.104;2024-01-30T15:23:26;12.20;99.90
8105;DHT22;4095;48.942;9.104;2024-01-30T15:25:52;12.10;99.90
8105;DHT22;4095;48.942;9.104;2024-01-30T15:28:17;12.10;99.90
8105;DHT22;4095;48.942;9.104;2024-01-30T15:30:44;12.10;99.90
8105;DHT22;4095;48.942;9.104;2024-01-30T15:33:10;12.00;99.90
8105;DHT22;4095;48.942;9.104;2024-01-30T15:35:35;11.90;99.90
8105;DHT22;4095;48.942;9.104;2024-01-30T15:38:03;11.90;99.90
8105;DHT22;4095;48.942;9.104;2024-01-30T15:40:29;11.90;99.90
8105;DHT22;4095;48.942;9.104;2024-01-30T15:42:55;11.80;99.90
8105;DHT22;4095;48.942;9.104;2024-01-30T15:45:20;11.70;99.90
8105;DHT22;4095;48.942;9.104;2024-01-30T15:47:46;11.60;99.90
8105;DHT22;4095;48.942;9.104;2024-01-30T15:50:12;11.60;99.90
8105;DHT22;4095;48.942;9.104;2024-01-30T15:52:37;11.60;99.90
8105;DHT22;4095;48.942;9.104;2024-01-30T15:55:03;11.50;99.90
8105;DHT22;4095;48.942;9.104;2024-01-30T15:57:28;11.40;99.90
8105;DHT22;4095;48.942;9.104;2024-01-30T15:59:54;11.40;99.90
8105;DHT22;4095;48.942;9.104;2024-01-30T16:02:20;11.30;99.90
8105;DHT22;4095;48.942;9.104;2024-01-30T16:04:46;11.40;99.90